sensor_id;sensor_type;location;lat;lon;timestamp;pressure;altitude;pressure_sealevel;temperature;humidity
46836;BME280;32573;51.290;6.926;2023-08-24T00:01:02;100396.91;;;20.52;100.00
46836;BME280;32573;51.290;6.926;2023-08-24T00:03:31;100388.97;;;20.50;100.00
46836;BME280;32573;51.290;6.926;2023-08-24T00:06:00;100392.50;;;20.49;100.00
46836;BME280;32573;51.290;6.926;2023-08-24T00:08:29;100388.09;;;20.46;100.00
46836;BME280;32573;51.290;6.926;2023-08-24T00:10:57;100385.47;;;20.43;100.00
46836;BME280;32573;51.290;6.926;2023-08-24T00:13:26;100388.13;;;20.43;100.00
46836;BME280;32573;51.290;6.926;2023-08-24T00:15:56;100391.72;;;20.39;100.00
46836;BME280;32573;51.290;6.926;2023-08-24T00:18:25;100395.28;;;20.35;100.00
46836;BME280;32573;51.290;6.926;2023-08-24T00:20:53;100388.19;;;20.34;100.00
46836;BME280;32573;51.290;6.926;2023-08-24T00:23:22;100382.91;;;20.31;100.00
46836;BME280;32573;51.290;6.926;2023-08-24T00:25:50;100383.81;;;20.29;100.00
46836;BME280;32573;51.290;6.926;2023-08-24T00:28:19;100382.97;;;20.25;100.00
46836;BME280;32573;51.290;6.926;2023-08-24T00:30:47;100382.97;;;20.25;100.00
46836;BME280;32573;51.290;6.926;2023-08-24T00:33:17;100379.44;;;20.23;100.00
46836;BME280;32573;51.290;6.926;2023-08-24T00:35:46;100368.84;;;20.20;100.00
46836;BME280;32573;51.290;6.926;2023-08-24T00:38:15;100375.06;;;20.17;100.00
46836;BME280;32573;51.290;6.926;2023-08-24T00:40:43;100381.25;;;20.16;100.00
46836;BME280;32573;51.290;6.926;2023-08-24T00:43:13;100374.19;;;20.15;100.00
46836;BME280;32573;51.290;6.926;2023-08-24T00:45:41;100368.88;;;20.14;100.00
46836;BME280;32573;51.290;6.926;2023-08-24T00:48:10;100363.59;;;20.12;100.00
46836;BME280;32573;51.290;6.926;2023-08-24T00:50:40;100369.78;;;20.11;100.00
46836;BME280;32573;51.290;6.926;2023-08-24T00:53:10;100361.84;;;20.10;100.00
46836;BME280;32573;51.290;6.926;2023-08-24T00:55:39;100359.19;;;20.08;100.00
46836;BME280;32573;51.290;6.926;2023-08-24T00:58:09;100363.63;;;20.08;100.00
46836;BME280;32573;51.290;6.926;2023-08-24T01:00:38;100361.84;;;20.07;100.00
46836;BME280;32573;51.290;6.926;2023-08-24T01:03:06;100359.22;;;20.05;100.00
46836;BME280;32573;51.290;6.926;2023-08-24T01:05:35;100361.00;;;20.04;100.00
46836;BME280;32573;51.290;6.926;2023-08-24T01:08:05;100355.69;;;20.03;100.00
46836;BME280;32573;51.290;6.926;2023-08-24T01:10:40;100359.25;;;20.02;100.00
46836;BME280;32573;51.290;6.926;2023-08-24T01:13:17;100356.59;;;20.00;100.00
46836;BME280;32573;51.290;6.926;2023-08-24T01:15:58;100353.91;;;19.99;100.00
46836;BME280;32573;51.290;6.926;2023-08-24T01:18:28;100354.81;;;19.99;100.00
46836;BME280;32573;51.290;6.926;2023-08-24T01:20:58;100355.69;;;20.00;100.00
46836;BME280;32573;51.290;6.926;2023-08-24T01:23:34;100345.97;;;19.97;100.00
46836;BME280;32573;51.290;6.926;2023-08-24T01:26:11;100345.97;;;19.97;100.00
46836;BME280;32573;51.290;6.926;2023-08-24T01:28:41;100353.94;;;19.96;100.00
46836;BME280;32573;51.290;6.926;2023-08-24T01:31:10;100354.84;;;19.95;100.00
46836;BME280;32573;51.290;6.926;2023-08-24T01:33:39;100361.03;;;19.94;100.00
46836;BME280;32573;51.290;6.926;2023-08-24T01:36:08;100353.09;;;19.92;100.00
46836;BME280;32573;51.290;6.926;2023-08-24T01:38:37;100361.06;;;19.92;100.00
46836;BME280;32573;51.290;6.926;2023-08-24T01:41:12;100367.25;;;19.91;100.00
46836;BME280;32573;51.290;6.926;2023-08-24T01:43:45;100371.69;;;19.89;100.00
46836;BME280;32573;51.290;6.926;2023-08-24T01:46:16;100361.06;;;19.89;100.00
46836;BME280;32573;51.290;6.926;2023-08-24T01:48:47;100362.84;;;19.89;100.00
46836;BME280;32573;51.290;6.926;2023-08-24T01:51:16;100361.09;;;19.86;100.00
46836;BME280;32573;51.290;6.926;2023-08-24T01:53:45;100354.91;;;19.84;100.00
46836;BME280;32573;51.290;6.926;2023-08-24T01:56:16;100354.03;;;19.83;100.00
46836;BME280;32573;51.290;6.926;2023-08-24T01:58:44;100339.00;;;19.81;100.00
46836;BME280;32573;51.290;6.926;2023-08-24T02:01:14;100335.47;;;19.79;100.00
46836;BME280;32573;51.290;6.926;2023-08-24T02:03:43;100325.75;;;19.78;100.00
46836;BME280;32573;51.290;6.926;2023-08-24T02:06:12;100329.28;;;19.80;100.00
46836;BME280;32573;51.290;6.926;2023-08-24T02:08:40;100323.09;;;19.78;100.00
46836;BME280;32573;51.290;6.926;2023-08-24T02:11:10;100319.56;;;19.76;100.00
46836;BME280;32573;51.290;6.926;2023-08-24T02:13:40;100320.47;;;19.75;100.00
46836;BME280;32573;51.290;6.926;2023-08-24T02:16:09;100322.22;;;19.74;100.00
46836;BME280;32573;51.290;6.926;2023-08-24T02:18:39;100327.53;;;19.74;100.00
46836;BME280;32573;51.290;6.926;2023-08-24T02:21:08;100320.47;;;19.73;100.00
46836;BME280;32573;51.290;6.926;2023-08-24T02:23:39;100324.91;;;19.73;100.00
46836;BME280;32573;51.290;6.926;2023-08-24T02:26:07;100315.16;;;19.72;100.00
46836;BME280;32573;51.290;6.926;2023-08-24T02:28:37;100321.38;;;19.71;100.00
46836;BME280;32573;51.290;6.926;2023-08-24T02:31:07;100326.69;;;19.69;100.00
46836;BME280;32573;51.290;6.926;2023-08-24T02:33:36;100329.38;;;19.68;100.00
46836;BME280;32573;51.290;6.926;2023-08-24T02:36:04;100332.84;;;19.67;100.00
46836;BME280;32573;51.290;6.926;2023-08-24T02:38:33;100325.78;;;19.66;100.00
46836;BME280;32573;51.290;6.926;2023-08-24T02:41:03;100322.25;;;19.65;100.00
46836;BME280;32573;51.290;6.926;2023-08-24T02:43:31;100316.94;;;19.64;100.00
46836;BME280;32573;51.290;6.926;2023-08-24T02:46:01;100328.47;;;19.63;100.00
46836;BME280;32573;51.290;6.926;2023-08-24T02:48:33;100330.22;;;19.64;100.00
46836;BME280;32573;51.290;6.926;2023-08-24T02:51:03;100326.69;;;19.61;100.00
46836;BME280;32573;51.290;6.926;2023-08-24T02:53:32;100324.94;;;19.60;100.00
46836;BME280;32573;51.290;6.926;2023-08-24T02:56:01;100319.63;;;19.59;100.00
46836;BME280;32573;51.290;6.926;2023-08-24T02:58:30;100324.06;;;19.58;100.00
46836;BME280;32573;51.290;6.926;2023-08-24T03:00:58;100321.41;;;19.58;100.00
46836;BME280;32573;51.290;6.926;2023-08-24T03:03:27;100335.56;;;19.60;100.00
46836;BME280;32573;51.290;6.926;2023-08-24T03:06:00;100335.56;;;19.60;100.00
46836;BME280;32573;51.290;6.926;2023-08-24T03:08:31;100328.50;;;19.59;100.00
46836;BME280;32573;51.290;6.926;2023-08-24T03:11:01;100314.31;;;19.62;100.00
46836;BME280;32573;51.290;6.926;2023-08-24T03:13:30;100318.72;;;19.61;100.00
46836;BME280;32573;51.290;6.926;2023-08-24T03:16:03;100317.84;;;19.63;100.00
46836;BME280;32573;51.290;6.926;2023-08-24T03:18:33;100317.84;;;19.61;100.00
46836;BME280;32573;51.290;6.926;2023-08-24T03:21:05;100305.44;;;19.61;100.00
46836;BME280;32573;51.290;6.926;2023-08-24T03:23:34;100307.22;;;19.63;100.00
46836;BME280;32573;51.290;6.926;2023-08-24T03:26:03;100305.44;;;19.61;100.00
46836;BME280;32573;51.290;6.926;2023-08-24T03:28:32;100306.34;;;19.62;100.00
46836;BME280;32573;51.290;6.926;2023-08-24T03:31:01;100301.91;;;19.63;100.00
46836;BME280;32573;51.290;6.926;2023-08-24T03:33:29;100314.28;;;19.64;100.00
46836;BME280;32573;51.290;6.926;2023-08-24T03:36:01;100318.72;;;19.63;100.00
46836;BME280;32573;51.290;6.926;2023-08-24T03:38:32;100312.50;;;19.64;100.00
46836;BME280;32573;51.290;6.926;2023-08-24T03:41:01;100317.81;;;19.66;100.00
46836;BME280;32573;51.290;6.926;2023-08-24T03:43:31;100327.59;;;19.68;100.00
46836;BME280;32573;51.290;6.926;2023-08-24T03:46:00;100339.97;;;19.69;100.00
46836;BME280;32573;51.290;6.926;2023-08-24T03:48:29;100340.84;;;19.71;100.00
46836;BME280;32573;51.290;6.926;2023-08-24T03:50:58;100344.38;;;19.72;100.00
46836;BME280;32573;51.290;6.926;2023-08-24T03:53:27;100351.47;;;19.73;100.00
46836;BME280;32573;51.290;6.926;2023-08-24T03:55:57;100358.53;;;19.74;100.00
46836;BME280;32573;51.290;6.926;2023-08-24T03:58:25;100354.09;;;19.76;100.00
46836;BME280;32573;51.290;6.926;2023-08-24T04:00:54;100347.91;;;19.77;100.00
46836;BME280;32573;51.290;6.926;2023-08-24T04:03:24;100339.03;;;19.78;100.00
46836;BME280;32573;51.290;6.926;2023-08-24T04:05:53;100331.06;;;19.78;100.00
46836;BME280;32573;51.290;6.926;2023-08-24T04:08:21;100318.66;;;19.78;100.00
46836;BME280;32573;51.290;6.926;2023-08-24T04:10:50;100308.03;;;19.78;100.00
46836;BME280;32573;51.290;6.926;2023-08-24T04:13:20;100302.72;;;19.78;100.00
46836;BME280;32573;51.290;6.926;2023-08-24T04:15:48;100295.63;;;19.79;100.00
46836;BME280;32573;51.290;6.926;2023-08-24T04:18:17;100300.94;;;19.79;100.00
46836;BME280;32573;51.290;6.926;2023-08-24T04:20:46;100306.25;;;19.79;100.00
46836;BME280;32573;51.290;6.926;2023-08-24T04:23:14;100302.72;;;19.80;100.00
46836;BME280;32573;51.290;6.926;2023-08-24T04:25:43;100301.81;;;19.81;100.00
46836;BME280;32573;51.290;6.926;2023-08-24T04:28:12;100296.50;;;19.81;100.00
46836;BME280;32573;51.290;6.926;2023-08-24T04:30:49;100309.78;;;19.82;100.00
46836;BME280;32573;51.290;6.926;2023-08-24T04:33:17;100304.47;;;19.82;100.00
46836;BME280;32573;51.290;6.926;2023-08-24T04:35:47;100286.75;;;19.83;100.00
46836;BME280;32573;51.290;6.926;2023-08-24T04:38:15;100283.22;;;19.82;100.00
46836;BME280;32573;51.290;6.926;2023-08-24T04:40:50;100279.69;;;19.82;100.00
46836;BME280;32573;51.290;6.926;2023-08-24T04:43:23;100285.88;;;19.82;100.00
46836;BME280;32573;51.290;6.926;2023-08-24T04:45:54;100267.28;;;19.82;100.00
46836;BME280;32573;51.290;6.926;2023-08-24T04:48:25;100243.34;;;19.81;100.00
46836;BME280;32573;51.290;6.926;2023-08-24T04:50:58;100250.47;;;19.79;100.00
46836;BME280;32573;51.290;6.926;2023-08-24T04:53:28;100252.28;;;19.77;100.00
46836;BME280;32573;51.290;6.926;2023-08-24T04:55:57;100243.38;;;19.78;100.00
46836;BME280;32573;51.290;6.926;2023-08-24T04:58:33;100243.38;;;19.76;100.00
46836;BME280;32573;51.290;6.926;2023-08-24T05:01:07;100239.84;;;19.76;100.00
46836;BME280;32573;51.290;6.926;2023-08-24T05:03:39;100245.22;;;19.73;100.00
46836;BME280;32573;51.290;6.926;2023-08-24T05:06:09;100240.78;;;19.75;100.00
46836;BME280;32573;51.290;6.926;2023-08-24T05:08:37;100231.03;;;19.74;100.00
46836;BME280;32573;51.290;6.926;2023-08-24T05:11:17;100220.38;;;19.74;100.00
46836;BME280;32573;51.290;6.926;2023-08-24T05:13:50;100209.78;;;19.74;100.00
46836;BME280;32573;51.290;6.926;2023-08-24T05:16:22;100202.72;;;19.73;100.00
46836;BME280;32573;51.290;6.926;2023-08-24T05:18:54;100193.88;;;19.71;100.00
46836;BME280;32573;51.290;6.926;2023-08-24T05:21:24;100200.97;;;19.70;100.00
46836;BME280;32573;51.290;6.926;2023-08-24T05:23:54;100204.50;;;19.71;100.00
46836;BME280;32573;51.290;6.926;2023-08-24T05:26:23;100211.56;;;19.72;100.00
46836;BME280;32573;51.290;6.926;2023-08-24T05:28:54;100210.69;;;19.73;100.00
46836;BME280;32573;51.290;6.926;2023-08-24T05:31:25;100215.06;;;19.74;100.00
46836;BME280;32573;51.290;6.926;2023-08-24T05:33:57;100214.19;;;19.75;100.00
46836;BME280;32573;51.290;6.926;2023-08-24T05:36:26;100202.72;;;19.73;100.00
46836;BME280;32573;51.290;6.926;2023-08-24T05:38:55;100211.50;;;19.78;100.00
46836;BME280;32573;51.290;6.926;2023-08-24T05:41:32;100208.81;;;19.81;100.00
46836;BME280;32573;51.290;6.926;2023-08-24T05:44:01;100211.47;;;19.81;100.00
46836;BME280;32573;51.290;6.926;2023-08-24T05:46:31;100206.16;;;19.82;100.00
46836;BME280;32573;51.290;6.926;2023-08-24T05:49:00;100207.00;;;19.86;100.00
46836;BME280;32573;51.290;6.926;2023-08-24T05:51:29;100205.22;;;19.87;100.00
46836;BME280;32573;51.290;6.926;2023-08-24T05:53:57;100197.25;;;19.88;100.00
46836;BME280;32573;51.290;6.926;2023-08-24T05:56:26;100197.22;;;19.91;100.00
46836;BME280;32573;51.290;6.926;2023-08-24T05:58:57;100176.84;;;19.90;100.00
46836;BME280;32573;51.290;6.926;2023-08-24T06:01:30;100176.81;;;19.93;100.00
46836;BME280;32573;51.290;6.926;2023-08-24T06:03:59;100178.56;;;19.96;100.00
46836;BME280;32573;51.290;6.926;2023-08-24T06:06:29;100182.97;;;19.98;100.00
46836;BME280;32573;51.290;6.926;2023-08-24T06:08:58;100187.38;;;20.01;100.00
46836;BME280;32573;51.290;6.926;2023-08-24T06:11:26;100171.41;;;20.02;100.00
46836;BME280;32573;51.290;6.926;2023-08-24T06:13:55;100162.53;;;20.03;100.00
46836;BME280;32573;51.290;6.926;2023-08-24T06:16:24;100166.94;;;20.08;100.00
46836;BME280;32573;51.290;6.926;2023-08-24T06:18:56;100148.28;;;20.09;100.00
46836;BME280;32573;51.290;6.926;2023-08-24T06:21:25;100149.16;;;20.13;100.00
46836;BME280;32573;51.290;6.926;2023-08-24T06:23:55;100150.00;;;20.16;100.00
46836;BME280;32573;51.290;6.926;2023-08-24T06:26:24;100142.88;;;20.20;100.00
46836;BME280;32573;51.290;6.926;2023-08-24T06:28:53;100144.63;;;20.22;100.00
46836;BME280;32573;51.290;6.926;2023-08-24T06:31:26;100133.06;;;20.25;100.00
46836;BME280;32573;51.290;6.926;2023-08-24T06:33:54;100133.03;;;20.28;100.00
46836;BME280;32573;51.290;6.926;2023-08-24T06:36:25;100131.22;;;20.30;100.00
46836;BME280;32573;51.290;6.926;2023-08-24T06:38:54;100122.28;;;20.34;100.00
46836;BME280;32573;51.290;6.926;2023-08-24T06:41:23;100123.16;;;20.36;100.00
46836;BME280;32573;51.290;6.926;2023-08-24T06:43:51;100113.38;;;20.38;100.00
46836;BME280;32573;51.290;6.926;2023-08-24T06:46:23;100115.13;;;20.42;100.00
46836;BME280;32573;51.290;6.926;2023-08-24T06:48:52;100110.63;;;20.46;100.00
46836;BME280;32573;51.290;6.926;2023-08-24T06:51:20;100106.16;;;20.50;100.00
46836;BME280;32573;51.290;6.926;2023-08-24T06:53:50;100103.41;;;20.54;100.00
46836;BME280;32573;51.290;6.926;2023-08-24T06:56:18;100103.38;;;20.59;100.00
46836;BME280;32573;51.290;6.926;2023-08-24T06:58:50;100103.31;;;20.63;100.00
46836;BME280;32573;51.290;6.926;2023-08-24T07:01:19;100102.34;;;20.69;100.00
46836;BME280;32573;51.290;6.926;2023-08-24T07:03:48;100098.75;;;20.73;100.00
46836;BME280;32573;51.290;6.926;2023-08-24T07:06:16;100093.34;;;20.79;100.00
46836;BME280;32573;51.290;6.926;2023-08-24T07:08:44;100094.19;;;20.83;100.00
46836;BME280;32573;51.290;6.926;2023-08-24T07:11:14;100097.63;;;20.89;100.00
46836;BME280;32573;51.290;6.926;2023-08-24T07:13:43;100102.84;;;20.96;100.00
46836;BME280;32573;51.290;6.926;2023-08-24T07:16:12;100104.56;;;21.00;100.00
46836;BME280;32573;51.290;6.926;2023-08-24T07:18:40;100106.25;;;21.05;100.00
46836;BME280;32573;51.290;6.926;2023-08-24T07:21:09;100105.25;;;21.11;100.00
46836;BME280;32573;51.290;6.926;2023-08-24T07:23:37;100099.84;;;21.17;100.00
46836;BME280;32573;51.290;6.926;2023-08-24T07:26:06;100103.31;;;21.22;100.00
46836;BME280;32573;51.290;6.926;2023-08-24T07:28:37;100097.88;;;21.28;100.00
46836;BME280;32573;51.290;6.926;2023-08-24T07:31:08;100101.34;;;21.33;100.00
46836;BME280;32573;51.290;6.926;2023-08-24T07:33:38;100102.16;;;21.40;100.00
46836;BME280;32573;51.290;6.926;2023-08-24T07:36:07;100096.75;;;21.43;100.00
46836;BME280;32573;51.290;6.926;2023-08-24T07:39:52;100088.63;;;21.51;100.00
46836;BME280;32573;51.290;6.926;2023-08-24T07:42:21;100097.41;;;21.56;100.00
46836;BME280;32573;51.290;6.926;2023-08-24T07:44:51;100098.22;;;21.61;100.00
46836;BME280;32573;51.290;6.926;2023-08-24T07:47:20;100098.97;;;21.69;100.00
46836;BME280;32573;51.290;6.926;2023-08-24T07:49:48;100111.31;;;21.73;100.00
46836;BME280;32573;51.290;6.926;2023-08-24T07:52:17;100109.41;;;21.80;100.00
46836;BME280;32573;51.290;6.926;2023-08-24T07:54:45;100100.41;;;21.86;100.00
46836;BME280;32573;51.290;6.926;2023-08-24T07:57:14;100098.53;;;21.91;100.00
46836;BME280;32573;51.290;6.926;2023-08-24T08:02:12;100110.75;;;22.01;100.00
46836;BME280;32573;51.290;6.926;2023-08-24T08:04:42;100104.47;;;22.05;100.00
46836;BME280;32573;51.290;6.926;2023-08-24T08:07:11;100106.13;;;22.11;100.00
46836;BME280;32573;51.290;6.926;2023-08-24T08:09:41;100100.72;;;22.15;100.00
46836;BME280;32573;51.290;6.926;2023-08-24T08:12:09;100106.88;;;22.19;100.00
46836;BME280;32573;51.290;6.926;2023-08-24T08:14:38;100105.03;;;22.23;100.00
46836;BME280;32573;51.290;6.926;2023-08-24T08:17:09;100106.69;;;22.30;100.00
46836;BME280;32573;51.290;6.926;2023-08-24T08:19:41;100091.44;;;22.35;100.00
46836;BME280;32573;51.290;6.926;2023-08-24T08:22:10;100099.31;;;22.41;100.00
46836;BME280;32573;51.290;6.926;2023-08-24T08:24:38;100100.06;;;22.46;100.00
46836;BME280;32573;51.290;6.926;2023-08-24T08:27:07;100091.97;;;22.52;100.00
46836;BME280;32573;51.290;6.926;2023-08-24T08:29:37;100091.81;;;22.58;100.00
46836;BME280;32573;51.290;6.926;2023-08-24T08:32:08;100083.69;;;22.63;100.00
46836;BME280;32573;51.290;6.926;2023-08-24T08:34:40;100082.63;;;22.72;100.00
46836;BME280;32573;51.290;6.926;2023-08-24T08:37:09;100080.72;;;22.77;100.00
46836;BME280;32573;51.290;6.926;2023-08-24T08:39:37;100076.16;;;22.82;100.00
46836;BME280;32573;51.290;6.926;2023-08-24T08:42:11;100079.59;;;22.87;100.00
46836;BME280;32573;51.290;6.926;2023-08-24T08:44:45;100077.69;;;22.92;100.00
46836;BME280;32573;51.290;6.926;2023-08-24T08:47:13;100083.81;;;22.99;100.00
46836;BME280;32573;51.290;6.926;2023-08-24T08:49:45;100074.75;;;23.04;100.00
46836;BME280;32573;51.290;6.926;2023-08-24T08:52:15;100081.75;;;23.09;100.00
46836;BME280;32573;51.290;6.926;2023-08-24T08:54:44;100070.94;;;23.15;100.00
46836;BME280;32573;51.290;6.926;2023-08-24T08:57:14;100065.50;;;23.18;100.00
46836;BME280;32573;51.290;6.926;2023-08-24T08:59:45;100063.59;;;23.23;100.00
46836;BME280;32573;51.290;6.926;2023-08-24T09:02:16;100056.34;;;23.28;100.00
46836;BME280;32573;51.290;6.926;2023-08-24T09:04:48;100052.69;;;23.32;100.00
46836;BME280;32573;51.290;6.926;2023-08-24T09:07:19;100048.97;;;23.36;100.00
46836;BME280;32573;51.290;6.926;2023-08-24T09:09:47;100042.66;;;23.40;100.00
46836;BME280;32573;51.290;6.926;2023-08-24T09:12:17;100038.06;;;23.45;100.00
46836;BME280;32573;51.290;6.926;2023-08-24T09:14:46;100019.31;;;23.47;100.00
46836;BME280;32573;51.290;6.926;2023-08-24T09:17:21;100020.94;;;23.53;100.00
46836;BME280;32573;51.290;6.926;2023-08-24T09:19:55;100008.34;;;23.56;100.00
46836;BME280;32573;51.290;6.926;2023-08-24T09:22:25;100005.56;;;23.61;100.00
46836;BME280;32573;51.290;6.926;2023-08-24T09:24:54;99993.03;;;23.63;100.00
46836;BME280;32573;51.290;6.926;2023-08-24T09:27:23;99986.63;;;23.68;100.00
46836;BME280;32573;51.290;6.926;2023-08-24T09:29:52;99985.66;;;23.71;100.00
46836;BME280;32573;51.290;6.926;2023-08-24T09:32:24;99975.75;;;23.76;100.00
46836;BME280;32573;51.290;6.926;2023-08-24T09:35:02;99976.50;;;23.81;100.00
46836;BME280;32573;51.290;6.926;2023-08-24T09:37:32;99963.88;;;23.86;100.00
46836;BME280;32573;51.290;6.926;2023-08-24T09:40:03;99962.81;;;23.92;100.00
46836;BME280;32573;51.290;6.926;2023-08-24T09:42:38;99954.66;;;23.97;100.00
46836;BME280;32573;51.290;6.926;2023-08-24T09:45:08;99934.91;;;24.01;100.00
46836;BME280;32573;51.290;6.926;2023-08-24T09:47:39;99940.09;;;24.05;100.00
46836;BME280;32573;51.290;6.926;2023-08-24T09:50:09;99949.72;;;24.11;100.00
46836;BME280;32573;51.290;6.926;2023-08-24T09:52:37;99952.34;;;24.14;100.00
46836;BME280;32573;51.290;6.926;2023-08-24T09:55:09;99960.19;;;24.19;100.00
46836;BME280;32573;51.290;6.926;2023-08-24T09:57:40;99964.53;;;24.23;100.00
46836;BME280;32573;51.290;6.926;2023-08-24T10:00:10;99970.59;;;24.28;100.00
46836;BME280;32573;51.290;6.926;2023-08-24T10:02:48;99982.91;;;24.33;100.00
46836;BME280;32573;51.290;6.926;2023-08-24T10:05:22;99981.91;;;24.38;100.00
46836;BME280;32573;51.290;6.926;2023-08-24T10:08:11;99992.44;;;24.44;100.00
46836;BME280;32573;51.290;6.926;2023-08-24T10:10:41;99997.59;;;24.50;100.00
46836;BME280;32573;51.290;6.926;2023-08-24T10:13:14;99983.22;;;24.54;100.00
46836;BME280;32573;51.290;6.926;2023-08-24T10:15:44;99987.47;;;24.60;100.00
46836;BME280;32573;51.290;6.926;2023-08-24T10:18:15;99985.56;;;24.63;100.00
46836;BME280;32573;51.290;6.926;2023-08-24T10:20:45;99990.78;;;24.68;100.00
46836;BME280;32573;51.290;6.926;2023-08-24T10:23:15;99988.06;;;24.69;100.00
46836;BME280;32573;51.290;6.926;2023-08-24T10:25:46;99997.72;;;24.73;100.00
46836;BME280;32573;51.290;6.926;2023-08-24T10:28:15;100001.13;;;24.79;100.00
46836;BME280;32573;51.290;6.926;2023-08-24T10:30:44;100008.13;;;24.83;100.00
46836;BME280;32573;51.290;6.926;2023-08-24T10:33:15;99997.28;;;24.87;100.00
46836;BME280;32573;51.290;6.926;2023-08-24T10:35:47;99990.88;;;24.91;100.00
46836;BME280;32573;51.290;6.926;2023-08-24T10:38:26;100010.34;;;24.96;100.00
46836;BME280;32573;51.290;6.926;2023-08-24T10:41:02;99996.84;;;25.00;100.00
46836;BME280;32573;51.290;6.926;2023-08-24T10:43:34;100008.31;;;25.03;100.00
46836;BME280;32573;51.290;6.926;2023-08-24T10:46:03;100018.97;;;25.06;100.00
46836;BME280;32573;51.290;6.926;2023-08-24T10:48:57;100017.09;;;25.08;100.00
46836;BME280;32573;51.290;6.926;2023-08-24T10:51:27;100017.88;;;25.12;100.00
46836;BME280;32573;51.290;6.926;2023-08-24T10:53:59;100023.13;;;25.15;100.00
46836;BME280;32573;51.290;6.926;2023-08-24T10:56:34;100006.09;;;25.17;100.00
46836;BME280;32573;51.290;6.926;2023-08-24T10:59:10;100013.09;;;25.22;100.00
46836;BME280;32573;51.290;6.926;2023-08-24T11:01:40;100014.72;;;25.26;100.00
46836;BME280;32573;51.290;6.926;2023-08-24T11:04:10;100001.28;;;25.27;100.00
46836;BME280;32573;51.290;6.926;2023-08-24T11:06:54;99998.44;;;25.32;100.00
46836;BME280;32573;51.290;6.926;2023-08-24T11:09:25;99999.19;;;25.35;100.00
46836;BME280;32573;51.290;6.926;2023-08-24T11:11:59;99987.50;;;25.38;100.00
46836;BME280;32573;51.290;6.926;2023-08-24T11:14:28;99987.41;;;25.41;100.00
46836;BME280;32573;51.290;6.926;2023-08-24T11:16:59;99979.28;;;25.43;100.00
46836;BME280;32573;51.290;6.926;2023-08-24T11:19:32;99983.66;;;25.45;100.00
46836;BME280;32573;51.290;6.926;2023-08-24T11:22:04;99976.44;;;25.47;100.00
46836;BME280;32573;51.290;6.926;2023-08-24T11:24:32;99967.47;;;25.48;100.00
46836;BME280;32573;51.290;6.926;2023-08-24T11:27:03;99960.25;;;25.50;100.00
46836;BME280;32573;51.290;6.926;2023-08-24T11:29:32;99962.00;;;25.51;100.00
46836;BME280;32573;51.290;6.926;2023-08-24T11:32:00;99969.09;;;25.52;100.00
46836;BME280;32573;51.290;6.926;2023-08-24T11:34:32;99972.63;;;25.54;100.00
46836;BME280;32573;51.290;6.926;2023-08-24T11:37:18;99990.38;;;25.57;100.00
46836;BME280;32573;51.290;6.926;2023-08-24T11:39:47;99986.84;;;25.56;100.00
46836;BME280;32573;51.290;6.926;2023-08-24T11:42:15;99999.31;;;25.57;100.00
46836;BME280;32573;51.290;6.926;2023-08-24T11:44:47;99993.94;;;25.57;100.00
46836;BME280;32573;51.290;6.926;2023-08-24T11:47:19;100004.66;;;25.57;100.00
46836;BME280;32573;51.290;6.926;2023-08-24T11:49:48;100007.31;;;25.59;100.00
46836;BME280;32573;51.290;6.926;2023-08-24T11:52:17;100010.81;;;25.61;100.00
46836;BME280;32573;51.290;6.926;2023-08-24T11:54:46;100000.94;;;25.61;100.00
46836;BME280;32573;51.290;6.926;2023-08-24T11:57:15;99993.72;;;25.64;100.00
46836;BME280;32573;51.290;6.926;2023-08-24T11:59:44;99988.28;;;25.65;100.00
46836;BME280;32573;51.290;6.926;2023-08-24T12:02:13;99995.34;;;25.68;100.00
46836;BME280;32573;51.290;6.926;2023-08-24T12:04:44;99998.84;;;25.70;100.00
46836;BME280;32573;51.290;6.926;2023-08-24T12:07:20;100004.22;;;25.70;100.00
46836;BME280;32573;51.290;6.926;2023-08-24T12:09:52;99998.72;;;25.73;100.00
46836;BME280;32573;51.290;6.926;2023-08-24T12:12:21;99987.09;;;25.74;100.00
46836;BME280;32573;51.290;6.926;2023-08-24T12:14:50;99990.63;;;25.74;100.00
46836;BME280;32573;51.290;6.926;2023-08-24T12:17:19;99980.78;;;25.75;100.00
46836;BME280;32573;51.290;6.926;2023-08-24T12:19:57;99973.56;;;25.77;100.00
46836;BME280;32573;51.290;6.926;2023-08-24T12:22:29;99974.38;;;25.79;100.00
46836;BME280;32573;51.290;6.926;2023-08-24T12:25:01;99956.47;;;25.79;100.00
46836;BME280;32573;51.290;6.926;2023-08-24T12:27:32;99940.44;;;25.78;100.00
46836;BME280;32573;51.290;6.926;2023-08-24T12:30:02;99923.47;;;25.77;100.00
46836;BME280;32573;51.290;6.926;2023-08-24T12:32:42;99916.41;;;25.75;100.00
46836;BME280;32573;51.290;6.926;2023-08-24T12:35:11;99915.59;;;25.73;100.00
46836;BME280;32573;51.290;6.926;2023-08-24T12:37:41;99909.41;;;25.71;100.00
46836;BME280;32573;51.290;6.926;2023-08-24T12:40:13;99909.53;;;25.68;100.00
46836;BME280;32573;51.290;6.926;2023-08-24T12:42:43;99904.28;;;25.65;100.00
46836;BME280;32573;51.290;6.926;2023-08-24T12:45:12;99910.66;;;25.62;100.00
46836;BME280;32573;51.290;6.926;2023-08-24T12:47:42;99892.06;;;25.57;100.00
46836;BME280;32573;51.290;6.926;2023-08-24T12:50:13;99877.84;;;25.55;100.00
46836;BME280;32573;51.290;6.926;2023-08-24T12:52:43;99880.63;;;25.52;100.00
46836;BME280;32573;51.290;6.926;2023-08-24T12:55:12;99873.53;;;25.51;100.00
46836;BME280;32573;51.290;6.926;2023-08-24T12:57:42;99862.00;;;25.49;100.00
46836;BME280;32573;51.290;6.926;2023-08-24T13:00:12;99853.09;;;25.49;100.00
46836;BME280;32573;51.290;6.926;2023-08-24T13:02:40;99850.44;;;25.47;100.00